Time;durP1;ratioP1;P1;durP2;ratioP2;P2;SDS_P1;SDS_P2;PMS_P1;PMS_P2;Temp;Humidity;BMP_temperature;BMP_pressure;BME280_temperature;BME280_humidity;BME280_pressure;Samples;Min_cycle;Max_cycle;Signal;HPM_P1;HPM_P2
2022/12/15 00:40:12;;;;;;;;;69.00;51.00;;;;;1.61;56.19;99941.25;5014397;28;46084;-55
2022/12/15 00:42:37;;;;;;;;;55.67;45.33;;;;;1.54;56.20;99931.31;5019295;28;45413;-54
2022/12/15 00:45:03;;;;;;;;;62.00;49.00;;;;;1.57;56.78;99942.63;5034082;28;45586;-56
2022/12/15 00:47:30;;;;;;;;;58.67;45.67;;;;;1.52;57.05;99936.88;5033979;28;45375;-52
2022/12/15 01:20:17;;;;;;;;;60.50;46.75;;;;;1.13;57.38;99930.34;5015791;28;45374;-56
2022/12/15 01:22:46;;;;;;;;;57.25;46.75;;;;;1.42;57.77;99977.63;5016938;28;45398;-56
2022/12/15 01:25:12;;;;;;;;;59.33;47.67;;;;;1.47;57.53;99972.56;5017024;28;45456;-56
2022/12/15 01:27:38;;;;;;;;;60.00;47.00;;;;;1.44;57.17;99975.59;5015730;28;45392;-54
2022/12/15 01:30:05;;;;;;;;;67.67;53.67;;;;;1.39;57.48;99972.56;5015377;28;48201;-56
2022/12/15 01:32:31;;;;;;;;;55.67;47.67;;;;;1.34;58.38;99974.94;5015305;28;45502;-55
2022/12/15 01:34:56;;;;;;;;;71.00;53.33;;;;;1.28;57.95;99981.03;5015605;28;45464;-56
2022/12/15 01:37:22;;;;;;;;;52.67;45.00;;;;;1.16;58.10;99978.66;5015836;28;45372;-57
2022/12/15 01:42:35;;;;;;;;;67.00;49.00;;;;;1.15;58.61;99979.69;5016364;28;45432;-57
2022/12/15 01:45:25;;;;;;;;;58.33;49.00;;;;;1.16;58.88;99981.38;5018505;28;45464;-55
2022/12/15 01:47:54;;;;;;;;;60.33;47.33;;;;;1.12;58.79;99985.41;5035165;28;45578;-57
2022/12/15 01:50:20;;;;;;;;;64.67;49.67;;;;;1.18;58.88;99983.91;5018970;28;46442;-57
2022/12/15 01:52:46;;;;;;;;;63.00;45.67;;;;;1.13;59.29;99989.84;5036079;28;45413;-57
2022/12/15 01:55:12;;;;;;;;;59.33;48.67;;;;;1.04;59.11;99967.34;5035141;28;45284;-57
2022/12/15 01:57:37;;;;;;;;;61.33;48.67;;;;;0.87;59.00;99936.78;5035476;28;45827;-57
2022/12/15 02:00:04;;;;;;;;;64.00;50.67;;;;;1.20;58.94;99990.84;5034744;28;46221;-57
2022/12/15 02:02:30;;;;;;;;;60.00;48.33;;;;;0.80;59.26;99933.06;5036593;28;45320;-56
2022/12/15 02:04:56;;;;;;;;;63.33;48.00;;;;;1.19;58.90;99981.00;5035220;28;45452;-56
2022/12/15 02:07:22;;;;;;;;;58.50;46.00;;;;;1.23;59.12;99978.00;5034879;28;45526;-56
2022/12/15 02:09:48;;;;;;;;;63.00;50.00;;;;;1.19;58.98;99970.19;5034613;28;45869;-55
2022/12/15 02:12:16;;;;;;;;;65.33;46.33;;;;;1.20;59.24;99968.34;5035444;28;45453;-55
2022/12/15 02:15:04;;;;;;;;;58.67;46.00;;;;;1.03;58.75;99968.38;5036245;28;45374;-55
2022/12/15 02:17:34;;;;;;;;;57.00;48.67;;;;;1.03;59.60;99973.78;5035538;28;45342;-56
2022/12/15 02:20:24;;;;;;;;;60.00;48.67;;;;;0.71;59.05;99943.00;5034803;28;45358;-55
2022/12/15 02:22:50;;;;;;;;;59.33;49.00;;;;;0.85;60.00;99984.72;5035948;28;45849;-56
2022/12/15 02:26:02;;;;;;;;;60.33;48.00;;;;;0.81;59.32;99975.28;5035964;28;45592;-57
2022/12/15 02:28:30;;;;;;;;;57.00;49.00;;;;;0.66;59.55;99945.34;5021612;28;45582;-52
2022/12/15 02:31:50;;;;;;;;;66.00;50.33;;;;;0.82;60.17;99985.06;5035577;28;45454;-57
2022/12/15 02:34:33;;;;;;;;;55.67;45.00;;;;;0.90;59.55;99982.38;5034159;28;45380;-58
2022/12/15 02:37:16;;;;;;;;;68.00;51.67;;;;;0.91;59.57;99981.34;4989132;28;45755;-57
2022/12/15 02:39:41;;;;;;;;;60.67;48.67;;;;;0.82;59.79;99963.44;5014964;28;45443;-57
2022/12/15 02:42:09;;;;;;;;;65.00;49.00;;;;;0.82;59.19;99974.25;4997661;28;45500;-56
2022/12/15 02:44:47;;;;;;;;;68.67;51.00;;;;;0.88;59.68;99981.69;5014616;28;45365;-54
2022/12/15 02:47:21;;;;;;;;;63.33;50.00;;;;;0.88;59.52;99992.50;5014908;28;45421;-56
2022/12/15 02:49:56;;;;;;;;;56.00;47.33;;;;;0.53;59.37;99949.38;5016656;28;45329;-53
2022/12/15 02:52:44;;;;;;;;;65.33;51.00;;;;;0.74;59.20;99998.56;5027534;28;46556;-57
2022/12/15 02:55:22;;;;;;;;;69.67;53.00;;;;;0.65;59.74;99997.69;5035480;28;45471;-56
2022/12/15 02:58:19;;;;;;;;;62.67;50.67;;;;;0.63;59.91;100005.09;5034801;28;46210;-56
2022/12/15 03:00:48;;;;;;;;;64.00;51.67;;;;;0.43;60.01;99966.75;5034887;28;45449;-54
2022/12/15 03:03:18;;;;;;;;;58.33;49.00;;;;;0.58;60.34;99969.66;5017900;28;46424;-57
2022/12/15 03:05:46;;;;;;;;;62.67;49.67;;;;;0.38;60.00;99938.38;5017988;28;45286;-56
2022/12/15 03:08:11;;;;;;;;;69.00;53.33;;;;;0.57;59.98;99976.91;5035769;28;45289;-55
2022/12/15 03:10:37;;;;;;;;;62.33;49.67;;;;;0.53;60.28;99972.84;5034340;28;45577;-55
2022/12/15 03:13:02;;;;;;;;;68.33;53.33;;;;;0.58;60.16;99975.88;5033828;28;45807;-55
2022/12/15 03:15:28;;;;;;;;;63.33;51.00;;;;;0.47;60.43;99954.63;5034105;28;45660;-55
2022/12/15 03:17:53;;;;;;;;;70.00;51.00;;;;;0.51;60.70;99977.56;5035682;28;45330;-55
2022/12/15 03:20:19;;;;;;;;;73.67;57.00;;;;;0.40;60.56;99974.19;5035834;28;45414;-56
2022/12/15 03:22:45;;;;;;;;;67.33;51.33;;;;;0.43;60.97;99997.28;5033842;28;46424;-55
2022/12/15 03:25:10;;;;;;;;;61.67;50.33;;;;;0.23;60.62;99946.28;5035411;28;45456;-56
2022/12/15 03:27:36;;;;;;;;;60.75;45.25;;;;;0.59;60.88;99984.84;5033899;28;45456;-57
2022/12/15 03:30:03;;;;;;;;;64.33;52.33;;;;;0.42;60.15;99987.50;5035728;28;45527;-56
2022/12/15 03:32:28;;;;;;;;;61.67;50.00;;;;;0.11;61.15;99942.19;5034805;28;46286;-54
2022/12/15 03:34:54;;;;;;;;;61.75;49.50;;;;;0.39;61.03;99983.25;5035157;28;45317;-56
2022/12/15 03:37:19;;;;;;;;;65.00;49.67;;;;;0.21;60.64;99969.06;5035172;28;45417;-55
2022/12/15 03:39:45;;;;;;;;;62.67;52.00;;;;;0.28;60.87;99994.38;5028308;28;45361;-55
2022/12/15 03:42:10;;;;;;;;;55.67;47.67;;;;;0.22;61.20;99974.25;5033830;28;45669;-54
2022/12/15 03:44:35;;;;;;;;;69.00;54.00;;;;;-0.05;61.15;99938.41;5028747;28;45144;-55
2022/12/15 03:47:01;;;;;;;;;64.00;53.33;;;;;0.10;61.22;99968.31;5034290;28;45349;-56
2022/12/15 03:49:27;;;;;;;;;71.00;52.00;;;;;-0.05;61.38;99946.50;5034811;28;45366;-53
2022/12/15 03:51:52;;;;;;;;;66.00;53.00;;;;;0.03;61.44;99969.97;5032675;28;46525;-56
2022/12/15 03:54:18;;;;;;;;;60.00;49.00;;;;;0.10;61.53;99976.41;5031621;28;45347;-54
2022/12/15 03:56:43;;;;;;;;;63.00;50.50;;;;;0.11;61.39;99980.81;5034739;28;45369;-55
2022/12/15 03:59:09;;;;;;;;;70.33;52.67;;;;;0.05;62.25;99981.44;5032888;28;45551;-53
2022/12/15 04:01:35;;;;;;;;;62.67;51.67;;;;;-0.03;61.82;99982.28;5031272;28;46222;-56
2022/12/15 04:04:00;;;;;;;;;70.00;54.00;;;;;-0.04;62.05;99985.13;5033423;28;45453;-56
2022/12/15 04:06:26;;;;;;;;;65.67;49.33;;;;;0.07;62.24;99990.25;5033560;28;45432;-54
2022/12/15 04:08:52;;;;;;;;;55.67;46.00;;;;;-0.23;61.92;99946.59;5035169;28;45965;-56
2022/12/15 04:11:17;;;;;;;;;64.00;49.00;;;;;0.03;61.72;99967.28;5034625;28;45936;-56
2022/12/15 04:13:43;;;;;;;;;72.00;52.25;;;;;0.26;62.00;99990.97;5034654;28;45405;-54
2022/12/15 04:16:09;;;;;;;;;66.00;51.33;;;;;0.30;61.19;99997.75;5034862;28;45326;-55
2022/12/15 04:18:34;;;;;;;;;64.00;52.75;;;;;0.36;61.60;99993.53;5033422;28;45466;-56
2022/12/15 04:21:00;;;;;;;;;65.67;54.00;;;;;0.43;61.24;99999.97;5033383;28;45387;-55
2022/12/15 04:23:25;;;;;;;;;62.33;47.67;;;;;0.35;61.31;99987.31;5033049;28;45408;-51
2022/12/15 05:31:50;;;;;;;;;64.67;51.33;;;;;0.28;60.66;99964.69;5036656;28;45401;-57
2022/12/15 05:34:18;;;;;;;;;53.33;42.67;;;;;0.44;60.32;99979.25;5035815;28;45367;-56
2022/12/15 05:36:43;;;;;;;;;51.33;45.00;;;;;-0.45;60.37;99851.78;5036573;28;45773;-57
2022/12/15 05:39:08;;;;;;;;;46.75;43.00;;;;;0.35;60.42;99973.81;5036883;28;45493;-58
2022/12/15 05:41:34;;;;;;;;;60.00;48.75;;;;;0.35;60.18;99981.91;5036345;28;45619;-57
2022/12/15 05:44:00;;;;;;;;;62.00;45.25;;;;;0.43;60.98;99986.47;5035502;28;45665;-56
2022/12/15 05:46:25;;;;;;;;;60.75;47.75;;;;;0.47;60.47;99981.63;5035423;28;46091;-56
2022/12/15 05:48:51;;;;;;;;;58.67;50.00;;;;;0.44;60.99;99982.78;5036639;28;45370;-58
2022/12/15 05:51:16;;;;;;;;;55.50;46.00;;;;;0.43;60.85;99985.66;5035530;28;45460;-53
2022/12/15 05:53:42;;;;;;;;;69.00;54.33;;;;;0.25;60.92;99975.78;5018317;28;45750;-55
2022/12/15 05:56:10;;;;;;;;;70.33;49.33;;;;;0.28;61.21;99986.28;5016306;28;45911;-54
2022/12/15 05:58:36;;;;;;;;;67.67;53.67;;;;;0.31;60.92;99985.94;5014975;28;45321;-52
2022/12/15 06:01:03;;;;;;;;;59.25;49.50;;;;;0.35;61.16;99992.72;5015491;28;45338;-56
2022/12/15 06:03:30;;;;;;;;;71.00;53.33;;;;;0.39;60.65;100004.03;5016759;28;45631;-58
2022/12/15 06:05:56;;;;;;;;;62.00;51.00;;;;;0.45;60.47;100003.38;5014753;28;46218;-53
2022/12/15 06:08:22;;;;;;;;;70.33;52.33;;;;;0.47;60.77;100000.53;5016147;28;45524;-56
2022/12/15 06:10:53;;;;;;;;;63.00;50.67;;;;;0.40;60.19;99992.22;5014883;28;45445;-55
2022/12/15 06:13:19;;;;;;;;;54.00;44.50;;;;;0.19;60.04;99949.47;5015058;28;45459;-56
2022/12/15 06:15:59;;;;;;;;;70.67;54.33;;;;;0.24;60.73;99985.78;5016335;28;45415;-56
2022/12/15 06:18:27;;;;;;;;;61.67;52.67;;;;;0.18;60.45;99958.56;5016197;28;45259;-56
2022/12/15 06:20:59;;;;;;;;;64.67;49.00;;;;;0.44;60.30;99990.03;5016365;28;45412;-58
2022/12/15 06:23:26;;;;;;;;;62.00;51.33;;;;;0.39;60.12;99999.47;5004108;28;45660;-57
2022/12/15 06:25:52;;;;;;;;;64.50;49.25;;;;;0.32;60.19;99990.31;5032920;28;45909;-56
2022/12/15 06:28:22;;;;;;;;;60.67;50.33;;;;;0.28;60.21;99985.44;5034438;28;45461;-56
2022/12/15 06:30:49;;;;;;;;;67.33;51.00;;;;;0.42;60.12;100005.56;5032515;28;45397;-56
2022/12/15 06:33:15;;;;;;;;;61.33;52.33;;;;;0.42;60.18;99998.28;5033743;28;45536;-57
2022/12/15 06:35:40;;;;;;;;;63.75;48.50;;;;;0.45;60.27;100005.22;5034690;28;45692;-57
2022/12/15 06:38:06;;;;;;;;;56.00;49.33;;;;;0.42;60.48;99997.47;5035867;28;45305;-57
2022/12/15 06:40:31;;;;;;;;;65.33;49.33;;;;;0.43;60.13;100004.56;5036005;28;45472;-58
2022/12/15 06:42:57;;;;;;;;;63.25;49.00;;;;;0.18;60.34;99955.88;5035956;28;45402;-56
2022/12/15 06:45:23;;;;;;;;;61.00;48.25;;;;;0.41;60.75;100002.00;5035714;28;45738;-56
2022/12/15 06:47:48;;;;;;;;;59.00;49.00;;;;;0.19;60.58;99958.41;5034302;28;45511;-56
2022/12/15 06:50:14;;;;;;;;;55.75;46.50;;;;;0.44;60.20;99995.44;5035961;28;45838;-55
2022/12/15 06:52:40;;;;;;;;;72.00;54.33;;;;;0.47;60.64;100006.75;5034163;28;45682;-56
2022/12/15 06:55:06;;;;;;;;;70.67;55.33;;;;;0.40;60.07;100014.69;5035536;28;45459;-58
2022/12/15 06:57:31;;;;;;;;;64.00;51.00;;;;;0.13;60.32;99973.41;5034809;28;45333;-58
2022/12/15 06:59:57;;;;;;;;;62.67;51.33;;;;;0.40;60.79;100011.13;5035813;28;45456;-52
2022/12/15 07:02:22;;;;;;;;;69.00;52.00;;;;;0.37;60.44;100016.88;5034271;28;45488;-58
2022/12/15 07:04:48;;;;;;;;;56.33;48.67;;;;;0.32;60.41;100011.94;5035340;28;46261;-56
2022/12/15 07:07:13;;;;;;;;;68.33;52.67;;;;;0.36;61.00;100018.69;5035450;28;45312;-58
2022/12/15 07:09:39;;;;;;;;;64.67;53.00;;;;;0.08;60.18;99975.75;5033871;28;45472;-56
2022/12/15 07:12:06;;;;;;;;;61.75;46.75;;;;;0.10;60.21;99971.03;5035748;28;45256;-55
2022/12/15 07:14:32;;;;;;;;;61.67;51.67;;;;;-0.45;60.35;99880.56;5033960;28;46111;-53
2022/12/15 07:16:57;;;;;;;;;72.67;48.67;;;;;0.38;60.60;100023.94;5035430;28;45464;-54
2022/12/15 07:19:23;;;;;;;;;62.00;48.25;;;;;0.13;60.30;99983.34;5035062;28;45686;-54
2022/12/15 07:21:48;;;;;;;;;68.00;49.75;;;;;0.42;60.91;100024.47;5035428;28;45412;-54
2022/12/15 07:24:14;;;;;;;;;65.25;53.00;;;;;0.40;60.15;100038.97;5033315;28;45924;-53
2022/12/15 07:26:40;;;;;;;;;66.25;52.00;;;;;0.38;60.45;100034.75;5035105;28;45353;-54
2022/12/15 07:29:05;;;;;;;;;65.33;50.00;;;;;0.43;60.39;100042.34;5033854;28;45432;-55
2022/12/15 07:31:31;;;;;;;;;58.67;48.67;;;;;0.46;60.49;100050.97;5035290;28;45585;-56
2022/12/15 07:33:59;;;;;;;;;65.00;51.67;;;;;0.43;60.52;100053.16;5034792;28;46675;-56
2022/12/15 07:36:26;;;;;;;;;63.00;47.67;;;;;0.24;60.36;100033.50;5035112;28;45334;-54
2022/12/15 07:38:59;;;;;;;;;61.33;48.00;;;;;0.40;60.04;100068.69;5034696;28;45307;-55
2022/12/15 07:41:25;;;;;;;;;73.67;54.33;;;;;0.37;60.50;100060.88;5033894;28;45460;-55
2022/12/15 07:43:51;;;;;;;;;50.33;41.33;;;;;0.44;60.42;100071.03;5033461;28;45397;-54
2022/12/15 07:46:16;;;;;;;;;58.00;49.33;;;;;0.21;60.14;100034.66;5035093;28;45181;-54
2022/12/15 07:48:43;;;;;;;;;59.67;46.33;;;;;0.48;60.38;100059.75;5033880;28;45253;-55
2022/12/15 07:51:08;;;;;;;;;63.67;53.00;;;;;0.51;60.01;100061.28;5034296;28;45509;-55
2022/12/15 07:53:34;;;;;;;;;63.00;50.33;;;;;-0.07;60.70;99964.72;5019922;28;45263;-56
2022/12/15 07:56:00;;;;;;;;;69.00;51.33;;;;;0.61;59.86;100067.41;5013640;28;45415;-57
2022/12/15 07:58:26;;;;;;;;;54.00;46.67;;;;;0.51;59.99;100047.78;5014944;28;45833;-58
2022/12/15 08:00:52;;;;;;;;;59.67;47.33;;;;;0.38;60.02;100035.56;5014063;28;45401;-56
2022/12/15 08:03:18;;;;;;;;;66.33;53.67;;;;;-0.31;59.71;99935.78;5014617;28;45408;-55
2022/12/15 08:05:44;;;;;;;;;63.33;49.67;;;;;0.39;59.57;100072.38;5015062;28;45811;-55
2022/12/15 08:08:10;;;;;;;;;73.00;55.00;;;;;0.33;60.10;100080.28;5014723;28;45357;-54
2022/12/15 08:10:38;;;;;;;;;70.00;50.33;;;;;0.31;60.12;100085.84;5013207;28;45537;-54
2022/12/15 08:13:04;;;;;;;;;68.33;55.00;;;;;0.11;60.46;100058.25;5013370;28;45884;-56
2022/12/15 08:15:30;;;;;;;;;71.67;53.00;;;;;0.38;59.78;100086.88;5014879;28;45357;-57
2022/12/15 08:17:55;;;;;;;;;65.67;52.33;;;;;0.49;59.81;100101.13;5013835;28;45436;-59
2022/12/15 08:20:21;;;;;;;;;65.67;46.00;;;;;0.53;60.16;100105.16;5013492;28;45590;-56
2022/12/15 08:22:47;;;;;;;;;68.00;52.67;;;;;0.68;60.02;100108.09;5014562;28;46361;-56
2022/12/15 08:25:12;;;;;;;;;81.67;59.00;;;;;0.73;59.76;100110.31;5014366;28;45411;-58
2022/12/15 08:27:38;;;;;;;;;69.00;54.67;;;;;0.77;59.21;100109.84;4997078;28;45414;-56
2022/12/15 08:30:04;;;;;;;;;72.33;57.00;;;;;0.59;60.03;100091.00;5014880;28;45351;-53
2022/12/15 08:32:29;;;;;;;;;68.33;53.33;;;;;0.81;59.18;100107.66;5014410;28;45291;-54
2022/12/15 08:34:55;;;;;;;;;71.33;54.33;;;;;0.72;59.10;100122.13;5013055;28;45927;-54
2022/12/15 08:37:20;;;;;;;;;63.67;50.67;;;;;0.76;59.24;100123.50;5014676;28;45796;-54
2022/12/15 08:39:46;;;;;;;;;66.67;51.33;;;;;0.75;59.04;100113.72;4986692;28;46659;-52
2022/12/15 08:42:12;;;;;;;;;66.00;52.67;;;;;0.79;59.36;100120.47;5013878;28;45580;-52
2022/12/15 08:44:38;;;;;;;;;69.00;51.00;;;;;0.74;59.38;100110.16;5014136;28;45465;-53
2022/12/15 08:47:03;;;;;;;;;71.00;57.67;;;;;0.75;59.11;100103.75;5014461;28;45422;-54
2022/12/15 08:49:29;;;;;;;;;61.00;49.00;;;;;0.81;58.95;100104.97;5012756;28;45530;-57
2022/12/15 08:51:54;;;;;;;;;69.00;55.67;;;;;0.84;58.71;100106.50;5016170;28;46268;-55
2022/12/15 08:54:20;;;;;;;;;71.33;54.67;;;;;0.75;58.48;100101.03;5033275;28;45486;-53
2022/12/15 08:56:45;;;;;;;;;70.00;57.67;;;;;0.69;58.42;100112.50;5033746;28;45545;-56
2022/12/15 08:59:11;;;;;;;;;65.67;50.33;;;;;0.74;59.01;100106.63;5033992;28;45413;-54
2022/12/15 09:01:38;;;;;;;;;75.67;57.33;;;;;0.79;58.95;100107.81;5033861;28;46071;-54
2022/12/15 09:04:04;;;;;;;;;60.00;49.00;;;;;0.81;58.46;100111.19;5033898;28;45433;-57
2022/12/15 09:06:31;;;;;;;;;72.00;56.00;;;;;0.80;58.28;100106.81;5033712;28;45367;-57
2022/12/15 09:08:58;;;;;;;;;66.33;54.33;;;;;0.63;58.22;100072.63;5034229;28;45338;-57
2022/12/15 09:11:24;;;;;;;;;75.33;55.67;;;;;0.83;57.97;100104.78;5032294;28;45926;-55
2022/12/15 09:13:49;;;;;;;;;67.33;55.33;;;;;0.84;58.03;100103.78;5033297;28;45412;-54
2022/12/15 09:16:15;;;;;;;;;67.00;53.33;;;;;0.82;57.66;100117.47;5034183;28;45349;-59
2022/12/15 09:18:42;;;;;;;;;69.00;54.00;;;;;0.91;58.02;100121.88;5033672;28;45376;-59
2022/12/15 09:21:15;;;;;;;;;71.67;54.33;;;;;0.84;57.82;100112.72;5034160;28;45944;-55
2022/12/15 09:23:45;;;;;;;;;73.00;56.00;;;;;0.88;57.74;100122.22;5001885;28;45699;-57
2022/12/15 09:26:13;;;;;;;;;62.67;51.33;;;;;0.66;57.98;100100.19;5034249;28;45746;-54
2022/12/15 09:28:38;;;;;;;;;71.00;54.33;;;;;0.86;57.56;100118.81;5035698;28;45396;-58
2022/12/15 09:31:08;;;;;;;;;65.67;51.67;;;;;0.87;57.81;100117.81;5034465;28;45689;-59
2022/12/15 09:33:34;;;;;;;;;48.67;41.33;;;;;0.96;57.42;100124.06;5033912;28;45395;-58
2022/12/15 09:36:00;;;;;;;;;67.67;55.33;;;;;1.06;58.14;100124.78;5035346;28;45431;-59
2022/12/15 09:38:26;;;;;;;;;74.67;55.67;;;;;1.12;57.77;100130.56;5035908;28;45328;-59
2022/12/15 09:40:52;;;;;;;;;64.00;51.33;;;;;1.14;57.07;100136.63;5004863;28;47626;-58
2022/12/15 09:43:20;;;;;;;;;70.67;56.00;;;;;0.87;56.94;100081.84;5014611;28;45373;-59
2022/12/15 09:45:58;;;;;;;;;69.67;55.00;;;;;1.24;56.85;100137.34;4994602;28;45871;-58
2022/12/15 09:48:24;;;;;;;;;74.00;54.50;;;;;1.42;57.10;100139.06;5026888;28;45340;-57
2022/12/15 09:50:51;;;;;;;;;73.00;55.67;;;;;1.50;56.90;100133.66;5013890;28;46349;-58
2022/12/15 09:53:17;;;;;;;;;71.67;55.33;;;;;1.67;56.11;100153.47;5005056;28;45343;-56
2022/12/15 09:55:45;;;;;;;;;73.33;57.67;;;;;1.63;56.41;100135.88;4994383;28;45465;-57
2022/12/15 09:58:18;;;;;;;;;74.00;52.33;;;;;1.75;56.21;100141.78;4990116;28;45534;-56
2022/12/15 10:00:54;;;;;;;;;59.00;50.33;;;;;1.87;55.69;100151.25;5013722;28;45642;-57
2022/12/15 10:03:41;;;;;;;;;65.67;51.67;;;;;1.89;55.86;100151.97;5013415;28;45405;-58
2022/12/15 10:06:14;;;;;;;;;66.00;55.00;;;;;2.01;55.73;100151.59;5009719;28;45527;-55
2022/12/15 10:08:44;;;;;;;;;61.67;50.67;;;;;2.09;55.63;100134.50;4994277;28;45428;-57
2022/12/15 10:11:23;;;;;;;;;68.00;54.33;;;;;2.12;55.66;100139.56;4996223;28;45863;-57
2022/12/15 10:14:28;;;;;;;;;71.00;54.67;;;;;2.02;55.21;100134.31;5014962;28;45519;-60
2022/12/15 10:17:05;;;;;;;;;69.00;53.00;;;;;2.09;55.17;100137.22;5015292;28;45481;-55
2022/12/15 10:19:44;;;;;;;;;67.00;55.00;;;;;2.11;55.11;100127.91;4999255;28;45403;-58
2022/12/15 10:22:15;;;;;;;;;69.67;52.33;;;;;2.20;55.08;100125.19;4980670;28;48518;-57
2022/12/15 10:24:41;;;;;;;;;65.33;50.00;;;;;2.25;54.88;100122.81;5032908;28;45461;-58
2022/12/15 10:27:16;;;;;;;;;74.33;56.00;;;;;2.33;54.64;100133.63;5034190;28;45398;-54
2022/12/15 10:29:45;;;;;;;;;63.00;51.00;;;;;2.40;54.63;100126.47;5033563;28;45408;-58
2022/12/15 10:32:18;;;;;;;;;69.00;56.00;;;;;2.41;54.50;100120.03;5031155;28;45467;-56
2022/12/15 10:34:44;;;;;;;;;72.67;54.00;;;;;2.34;54.36;100126.34;5034720;28;45869;-55
2022/12/15 10:37:17;;;;;;;;;68.33;50.33;;;;;2.35;54.54;100120.72;5034165;28;45361;-57
2022/12/15 10:39:44;;;;;;;;;75.00;56.67;;;;;2.41;54.88;100108.38;5034678;28;45424;-53
2022/12/15 10:42:21;;;;;;;;;66.33;51.67;;;;;2.28;54.74;100071.84;5007177;28;47032;-58
2022/12/15 10:44:49;;;;;;;;;67.67;50.00;;;;;2.47;54.38;100082.44;5043261;28;45978;-58
2022/12/15 10:47:30;;;;;;;;;64.00;53.00;;;;;2.28;54.15;100033.06;5033508;28;45453;-57
2022/12/15 10:50:14;;;;;;;;;65.67;51.33;;;;;2.48;53.81;100024.53;5052621;28;45865;-54
2022/12/15 10:52:40;;;;;;;;;64.33;49.33;;;;;2.86;54.27;100059.91;5038759;28;45383;-56
2022/12/15 10:55:35;;;;;;;;;66.67;53.00;;;;;2.94;53.54;100067.16;5051075;28;45488;-54
2022/12/15 10:58:02;;;;;;;;;71.67;54.00;;;;;3.02;53.62;100063.53;5052548;28;45396;-56
2022/12/15 11:00:29;;;;;;;;;64.67;48.67;;;;;2.66;53.69;100002.63;5054298;28;45354;-56
2022/12/15 11:02:54;;;;;;;;;69.67;56.67;;;;;2.87;53.00;100017.41;5053244;28;46340;-54
2022/12/15 11:05:20;;;;;;;;;68.00;49.33;;;;;3.07;53.35;100047.56;5031517;27;45902;-58
2022/12/15 11:07:51;;;;;;;;;76.00;55.33;;;;;2.93;53.10;100011.25;5054433;28;45380;-54
2022/12/15 11:10:23;;;;;;;;;62.67;50.00;;;;;3.29;52.90;100047.75;5053813;28;45393;-56
2022/12/15 11:13:13;;;;;;;;;76.00;56.00;;;;;3.25;52.63;100040.00;5055084;28;45455;-58
2022/12/15 11:15:41;;;;;;;;;68.00;50.67;;;;;3.17;52.48;100033.78;5027338;27;45599;-51
2022/12/15 11:18:23;;;;;;;;;70.00;54.00;;;;;3.27;52.56;100033.53;5046289;28;45400;-58
2022/12/15 11:21:00;;;;;;;;;68.00;50.67;;;;;3.22;52.33;100021.38;5046775;28;45434;-58
2022/12/15 11:23:46;;;;;;;;;58.67;47.67;;;;;3.36;52.02;100035.19;5049210;28;46099;-56
2022/12/15 11:26:31;;;;;;;;;69.67;53.33;;;;;3.44;51.83;99988.13;5046480;28;45589;-52
2022/12/15 11:29:05;;;;;;;;;56.00;47.00;;;;;5.01;49.95;100023.44;5047320;28;45425;-52
2022/12/15 11:31:31;;;;;;;;;64.33;48.33;;;;;7.76;45.03;100010.56;5048078;28;45353;-53
2022/12/15 11:33:57;;;;;;;;;63.00;52.25;;;;;8.32;42.18;99951.78;5045618;28;46119;-54
2022/12/15 11:36:22;;;;;;;;;69.33;53.67;;;;;7.71;42.22;99998.41;5046482;28;45444;-53
2022/12/15 11:38:59;;;;;;;;;68.25;51.25;;;;;6.41;43.71;99993.94;5048680;28;45439;-57
2022/12/15 11:41:44;;;;;;;;;64.00;50.00;;;;;5.49;45.86;99998.38;5030669;28;46025;-52
2022/12/15 11:44:24;;;;;;;;;64.75;50.25;;;;;5.09;47.50;99993.41;5043791;28;46795;-51
2022/12/15 11:47:02;;;;;;;;;65.67;51.33;;;;;4.96;48.38;100002.28;5010641;28;45563;-54
2022/12/15 11:49:33;;;;;;;;;65.75;51.00;;;;;4.81;48.73;99994.16;5028066;28;45552;-54
2022/12/15 11:52:36;;;;;;;;;66.25;52.75;;;;;4.65;49.43;99991.69;5026937;28;45397;-60
2022/12/15 11:55:11;;;;;;;;;64.67;49.67;;;;;4.42;49.12;99979.91;5046975;28;46799;-53
2022/12/15 11:57:42;;;;;;;;;67.33;53.00;;;;;4.30;49.81;99979.56;5030520;28;45517;-55
2022/12/15 12:00:14;;;;;;;;;73.00;51.67;;;;;4.10;49.81;99965.72;5048243;28;45628;-60
2022/12/15 12:03:00;;;;;;;;;54.50;47.25;;;;;4.02;49.95;99972.09;5032776;28;45577;-60
2022/12/15 12:05:37;;;;;;;;;60.75;48.25;;;;;3.90;49.97;99951.88;5030189;28;45515;-53
2022/12/15 12:08:15;;;;;;;;;65.25;52.50;;;;;3.88;49.69;99960.22;5013175;28;45510;-58
2022/12/15 12:10:58;;;;;;;;;64.25;49.50;;;;;3.64;50.81;99945.03;5030268;28;45798;-54
2022/12/15 12:13:41;;;;;;;;;63.00;49.25;;;;;3.61;50.74;99967.97;5047156;28;45451;-56
2022/12/15 12:16:25;;;;;;;;;63.00;52.33;;;;;3.21;50.33;99923.94;5032242;28;46082;-57
2022/12/15 12:19:01;;;;;;;;;64.67;49.00;;;;;3.22;51.15;99952.72;5025014;28;45424;-57
2022/12/15 12:21:28;;;;;;;;;57.25;46.50;;;;;3.14;51.02;99952.81;5028929;28;45593;-55
2022/12/15 12:24:10;;;;;;;;;57.25;44.75;;;;;2.99;51.27;99945.47;5039088;28;45596;-56
2022/12/15 12:26:49;;;;;;;;;53.50;45.50;;;;;3.03;51.62;99945.94;5034336;28;46179;-54
2022/12/15 12:29:21;;;;;;;;;64.00;49.25;;;;;2.97;51.81;99942.06;5052492;28;45384;-61
2022/12/15 12:31:52;;;;;;;;;61.00;48.00;;;;;2.83;51.61;99941.84;5052604;28;45428;-56
2022/12/15 12:34:33;;;;;;;;;60.67;50.33;;;;;2.74;51.40;99926.69;5054058;28;45788;-59
2022/12/15 12:37:21;;;;;;;;;64.00;51.67;;;;;2.73;52.02;99933.13;5053783;28;46359;-54
2022/12/15 12:39:47;;;;;;;;;65.00;48.00;;;;;2.72;51.91;99936.84;5053052;28;45289;-58
2022/12/15 12:42:29;;;;;;;;;64.67;45.67;;;;;2.76;51.81;99934.59;5036038;28;45593;-60
2022/12/15 12:44:54;;;;;;;;;55.00;45.00;;;;;2.50;51.45;99914.97;5053469;28;45327;-54
2022/12/15 12:47:23;;;;;;;;;60.33;47.33;;;;;2.35;51.35;99895.09;4963375;27;45993;-54
2022/12/15 12:49:55;;;;;;;;;62.75;46.50;;;;;2.57;51.55;99931.38;5049663;28;45377;-56
2022/12/15 12:52:39;;;;;;;;;55.50;44.75;;;;;2.63;51.33;99918.97;5054045;28;45317;-54
2022/12/15 12:55:11;;;;;;;;;41.50;36.75;;;;;2.47;51.17;99882.84;5053309;28;45431;-55
2022/12/15 12:57:38;;;;;;;;;54.00;46.75;;;;;2.99;52.24;99918.34;5057291;28;45866;-56
2022/12/15 13:00:06;;;;;;;;;66.33;47.33;;;;;3.05;51.14;99927.63;5057319;28;45491;-58
2022/12/15 13:02:36;;;;;;;;;52.00;44.00;;;;;3.06;51.16;99923.88;5057463;28;45290;-59
2022/12/15 13:05:22;;;;;;;;;62.00;44.00;;;;;2.93;51.03;99925.34;5057756;28;45296;-55
2022/12/15 13:08:03;;;;;;;;;56.75;45.50;;;;;2.82;51.00;99915.75;5056987;28;45925;-50
2022/12/15 13:10:29;;;;;;;;;54.50;44.25;;;;;2.71;52.06;99919.75;5057038;28;45509;-54
2022/12/15 13:12:58;;;;;;;;;55.75;44.50;;;;;2.66;52.72;99913.19;5057235;28;45380;-52
2022/12/15 13:15:27;;;;;;;;;54.25;48.00;;;;;2.64;52.56;99910.66;5056349;28;45489;-55
2022/12/15 13:18:05;;;;;;;;;54.00;45.00;;;;;2.63;52.59;99919.81;5057065;28;45896;-55
2022/12/15 13:20:32;;;;;;;;;58.75;45.00;;;;;2.62;52.43;99911.84;5043268;28;45504;-55
2022/12/15 13:23:32;;;;;;;;;58.25;48.00;;;;;2.40;52.57;99895.41;5025836;28;45439;-55
2022/12/15 13:25:58;;;;;;;;;61.00;47.50;;;;;2.55;52.78;99918.00;5057348;28;45258;-55
2022/12/15 13:28:26;;;;;;;;;49.75;42.00;;;;;2.54;52.52;99924.44;5056940;28;45842;-57
2022/12/15 13:31:19;;;;;;;;;50.75;41.00;;;;;2.48;52.69;99910.75;5056935;28;45434;-56
2022/12/15 13:33:54;;;;;;;;;61.25;44.75;;;;;2.46;53.12;99916.38;5056858;28;45368;-55
2022/12/15 13:36:38;;;;;;;;;59.75;44.50;;;;;2.48;52.98;99917.03;5056980;28;45950;-56
2022/12/15 13:39:12;;;;;;;;;53.75;45.50;;;;;2.42;52.83;99890.66;5056141;28;47132;-54
2022/12/15 13:41:42;;;;;;;;;55.75;45.00;;;;;2.45;52.99;99895.69;5056636;28;45335;-54
2022/12/15 13:44:35;;;;;;;;;56.25;41.25;;;;;2.42;53.24;99899.59;5056942;28;45363;-58
2022/12/15 13:47:14;;;;;;;;;57.00;46.50;;;;;2.40;53.41;99906.25;5057456;28;45327;-55
2022/12/15 13:49:41;;;;;;;;;57.25;44.50;;;;;1.72;53.04;99793.91;5055933;28;45382;-54
2022/12/15 13:52:27;;;;;;;;;47.00;41.25;;;;;2.35;52.61;99897.81;5055406;28;45344;-55
2022/12/15 13:54:54;;;;;;;;;44.00;39.25;;;;;2.37;52.57;99898.47;5055797;28;45368;-54